Time;durP1;ratioP1;P1;durP2;ratioP2;P2;SDS_P1;SDS_P2;PMS_P1;PMS_P2;Temp;Humidity;BMP_temperature;BMP_pressure;BME280_temperature;BME280_humidity;BME280_pressure;Samples;Min_cycle;Max_cycle;Signal;HPM_P1;HPM_P2
2023/11/26 00:00:27;;;;;;;6.03;2.67;;;3.70;99.90;;;;;;5033181;28;20034;-53
2023/11/26 00:02:52;;;;;;;6.87;2.40;;;3.80;99.90;;;;;;5033824;28;20386;-54
2023/11/26 00:05:19;;;;;;;6.17;2.23;;;3.80;99.90;;;;;;5033611;28;20064;-51
2023/11/26 00:07:44;;;;;;;8.07;2.77;;;3.70;99.90;;;;;;5033432;28;20025;-54
2023/11/26 00:10:10;;;;;;;6.60;2.90;;;3.70;99.90;;;;;;5033409;28;20482;-54
2023/11/26 00:12:35;;;;;;;5.80;2.47;;;3.70;99.90;;;;;;5033620;28;20041;-52
2023/11/26 00:15:01;;;;;;;8.23;2.87;;;3.60;99.90;;;;;;5033913;28;20037;-53
2023/11/26 00:17:27;;;;;;;8.57;2.63;;;3.60;99.90;;;;;;5033664;28;20044;-54
2023/11/26 00:19:54;;;;;;;6.97;2.67;;;3.60;99.90;;;;;;5032980;28;20037;-53
2023/11/26 00:22:20;;;;;;;6.60;2.87;;;3.60;99.90;;;;;;5033720;28;20049;-53
2023/11/26 00:24:45;;;;;;;9.33;2.70;;;3.50;99.90;;;;;;5033418;28;20083;-52
2023/11/26 00:27:11;;;;;;;7.17;2.90;;;3.50;99.90;;;;;;5033331;28;20078;-55
2023/11/26 00:29:42;;;;;;;7.17;2.60;;;3.50;99.90;;;;;;5031415;28;20385;-51
2023/11/26 00:32:08;;;;;;;9.50;2.60;;;3.50;99.90;;;;;;5032123;28;20037;-54
2023/11/26 00:34:35;;;;;;;9.33;2.83;;;3.50;99.90;;;;;;5033141;28;20026;-54
2023/11/26 00:37:01;;;;;;;7.77;2.83;;;3.50;99.90;;;;;;5031677;28;20385;-54
2023/11/26 00:39:26;;;;;;;9.87;3.03;;;3.50;99.90;;;;;;5030996;28;20034;-54
2023/11/26 00:41:53;;;;;;;9.77;3.30;;;3.50;99.90;;;;;;5031329;28;20068;-54
2023/11/26 00:44:19;;;;;;;12.13;3.17;;;3.60;99.90;;;;;;5031442;28;20494;-54
2023/11/26 00:46:45;;;;;;;7.20;3.27;;;3.60;99.90;;;;;;5031513;28;20043;-54
2023/11/26 00:49:12;;;;;;;7.60;3.47;;;3.60;99.90;;;;;;5030607;28;20083;-54
2023/11/26 00:51:38;;;;;;;7.50;3.27;;;3.60;99.90;;;;;;5032469;28;20033;-54
2023/11/26 00:54:05;;;;;;;7.30;3.13;;;3.60;99.90;;;;;;5031424;28;20039;-53
2023/11/26 00:56:32;;;;;;;10.33;3.00;;;3.60;99.90;;;;;;5032590;28;20029;-55
2023/11/26 00:58:58;;;;;;;7.97;2.70;;;3.50;99.90;;;;;;5032402;28;20030;-51
2023/11/26 01:01:23;;;;;;;10.33;2.80;;;3.40;99.90;;;;;;5030788;28;20474;-54
2023/11/26 01:03:49;;;;;;;7.90;3.03;;;3.30;99.90;;;;;;5032503;28;20033;-52
2023/11/26 01:06:15;;;;;;;10.33;2.77;;;3.30;99.90;;;;;;5030818;28;20022;-53
2023/11/26 01:08:40;;;;;;;6.07;2.90;;;3.30;99.90;;;;;;5030534;28;20525;-53
2023/11/26 01:11:12;;;;;;;13.90;3.13;;;3.20;99.90;;;;;;5030536;28;20041;-54
2023/11/26 01:13:38;;;;;;;7.20;2.43;;;3.20;99.90;;;;;;5030676;28;20033;-54
2023/11/26 01:16:05;;;;;;;11.50;3.20;;;3.30;99.90;;;;;;5030830;28;20478;-54
2023/11/26 01:18:30;;;;;;;8.53;3.20;;;3.30;99.90;;;;;;5031000;28;20036;-54
2023/11/26 01:20:57;;;;;;;6.43;2.50;;;3.30;99.90;;;;;;5031900;28;20029;-54
2023/11/26 01:23:22;;;;;;;8.57;3.13;;;3.40;99.90;;;;;;5032001;28;20057;-54
2023/11/26 01:25:48;;;;;;;8.33;3.03;;;3.40;99.90;;;;;;5031986;28;20124;-52
2023/11/26 01:28:14;;;;;;;9.47;2.60;;;3.40;99.90;;;;;;5032333;28;20065;-54
2023/11/26 01:30:39;;;;;;;8.13;2.90;;;3.40;99.90;;;;;;5030183;28;20026;-54
2023/11/26 01:33:06;;;;;;;7.80;3.03;;;3.40;99.90;;;;;;5031821;28;20455;-54
2023/11/26 01:35:31;;;;;;;6.90;2.63;;;3.40;99.90;;;;;;5030375;28;20398;-54
2023/11/26 01:37:57;;;;;;;7.27;2.63;;;3.40;99.90;;;;;;5031637;28;20033;-55
2023/11/26 01:40:23;;;;;;;9.47;2.97;;;3.40;99.90;;;;;;5029802;28;20044;-51
2023/11/26 01:42:49;;;;;;;6.70;2.77;;;3.40;99.90;;;;;;5030312;28;20036;-54
2023/11/26 01:45:14;;;;;;;5.57;2.70;;;3.30;99.90;;;;;;5030275;28;20090;-51
2023/11/26 01:47:40;;;;;;;10.87;3.30;;;3.30;99.90;;;;;;5030100;28;20033;-54
2023/11/26 01:50:08;;;;;;;8.80;2.70;;;3.30;99.90;;;;;;5031126;28;20087;-54
2023/11/26 01:52:34;;;;;;;9.07;3.20;;;3.30;99.90;;;;;;5030065;28;20535;-54
2023/11/26 01:55:00;;;;;;;6.97;2.50;;;3.30;99.90;;;;;;5030074;28;20132;-54
2023/11/26 01:57:27;;;;;;;6.57;2.53;;;3.30;99.90;;;;;;5031305;28;20038;-54
2023/11/26 01:59:53;;;;;;;9.03;3.23;;;3.30;99.90;;;;;;5029562;28;20040;-54
2023/11/26 02:02:18;;;;;;;8.17;2.47;;;3.20;99.90;;;;;;5029890;28;20041;-53
2023/11/26 02:04:44;;;;;;;5.00;2.23;;;3.30;99.90;;;;;;5030009;28;20030;-54
2023/11/26 02:07:10;;;;;;;6.07;2.50;;;3.20;99.90;;;;;;5029793;28;20466;-52
2023/11/26 02:09:37;;;;;;;9.13;2.47;;;3.10;99.90;;;;;;5029483;28;20071;-53
2023/11/26 02:12:08;;;;;;;6.73;2.87;;;3.00;99.90;;;;;;5030092;28;20038;-54
2023/11/26 02:14:33;;;;;;;5.03;2.50;;;3.00;99.90;;;;;;5029893;28;20041;-53
2023/11/26 02:16:59;;;;;;;7.23;2.30;;;2.90;99.90;;;;;;5029918;28;20556;-50
2023/11/26 02:19:32;;;;;;;8.80;2.70;;;2.90;99.90;;;;;;5029468;28;20124;-54
2023/11/26 02:21:58;;;;;;;6.87;2.30;;;2.80;99.90;;;;;;5029760;28;20088;-52
2023/11/26 02:24:36;;;;;;;5.83;2.37;;;2.80;99.90;;;;;;5029901;28;20564;-54
2023/11/26 02:27:01;;;;;;;7.83;2.80;;;2.80;99.90;;;;;;5029754;28;20034;-54
2023/11/26 02:29:27;;;;;;;8.00;2.73;;;2.80;99.90;;;;;;5032546;28;20116;-52
2023/11/26 02:31:53;;;;;;;10.20;3.30;;;2.80;99.90;;;;;;5035403;28;20033;-54
2023/11/26 02:34:18;;;;;;;6.77;2.57;;;2.70;99.90;;;;;;5035401;28;20095;-53
2023/11/26 02:36:44;;;;;;;9.37;2.73;;;2.60;99.90;;;;;;5035429;28;20061;-55
2023/11/26 02:39:09;;;;;;;4.80;2.77;;;2.50;99.90;;;;;;5033555;28;20473;-54
2023/11/26 02:41:35;;;;;;;6.73;2.50;;;2.40;99.90;;;;;;5035277;28;20025;-52
2023/11/26 02:44:02;;;;;;;11.90;2.93;;;2.30;99.90;;;;;;5033976;28;20030;-51
2023/11/26 02:46:27;;;;;;;5.93;2.57;;;2.20;99.90;;;;;;5033964;28;20044;-54
2023/11/26 02:48:53;;;;;;;7.57;2.57;;;2.20;99.90;;;;;;5034817;28;20021;-52
2023/11/26 02:51:19;;;;;;;8.67;2.67;;;2.20;99.90;;;;;;5035009;28;20692;-52
2023/11/26 02:53:45;;;;;;;5.07;2.37;;;2.10;99.90;;;;;;5035198;28;20040;-51
2023/11/26 02:56:12;;;;;;;7.23;2.73;;;2.10;99.90;;;;;;5033573;28;20474;-53
2023/11/26 02:58:41;;;;;;;6.97;2.47;;;2.10;99.90;;;;;;5033348;28;20053;-53
2023/11/26 03:01:07;;;;;;;6.10;2.75;;;2.10;99.90;;;;;;5034653;28;20044;-50
2023/11/26 03:03:33;;;;;;;5.23;2.53;;;2.00;99.90;;;;;;5034741;28;20029;-54
2023/11/26 03:05:58;;;;;;;7.33;2.60;;;1.90;99.90;;;;;;5033305;28;20112;-54
2023/11/26 03:08:32;;;;;;;10.73;3.07;;;1.90;99.90;;;;;;5034591;28;20113;-53
2023/11/26 03:13:43;;;;;;;6.97;2.70;;;1.80;99.90;;;;;;5033130;28;20034;-54
2023/11/26 03:16:11;;;;;;;7.13;2.80;;;1.70;99.90;;;;;;5032930;28;20038;-54
2023/11/26 03:18:37;;;;;;;5.83;2.33;;;1.80;99.90;;;;;;5034164;28;20044;-54
2023/11/26 03:21:04;;;;;;;5.23;2.47;;;1.80;99.90;;;;;;5032656;28;20029;-53
2023/11/26 03:23:30;;;;;;;5.97;2.73;;;1.80;99.90;;;;;;5034438;28;20037;-53
2023/11/26 03:25:57;;;;;;;8.63;2.77;;;1.80;99.90;;;;;;5032714;28;20029;-54
2023/11/26 03:28:24;;;;;;;5.83;2.77;;;1.80;99.90;;;;;;5034058;28;20363;-53
2023/11/26 03:30:51;;;;;;;5.00;2.60;;;1.80;99.90;;;;;;5034133;28;20037;-53
2023/11/26 03:33:17;;;;;;;10.63;2.80;;;1.80;99.90;;;;;;5034063;28;20067;-53
2023/11/26 03:35:43;;;;;;;7.00;2.83;;;1.80;99.90;;;;;;5032410;28;20045;-54
2023/11/26 03:38:09;;;;;;;9.23;2.93;;;1.80;99.90;;;;;;5032643;28;20086;-54
2023/11/26 03:40:35;;;;;;;9.13;2.70;;;1.90;99.90;;;;;;5031715;28;20033;-54
2023/11/26 03:43:01;;;;;;;7.60;2.40;;;1.80;99.90;;;;;;5016651;28;20026;-54
2023/11/26 03:45:28;;;;;;;10.37;3.33;;;1.90;99.90;;;;;;5033940;28;20386;-53
2023/11/26 03:47:55;;;;;;;6.07;2.63;;;1.80;99.90;;;;;;5033912;28;20025;-51
2023/11/26 03:50:20;;;;;;;6.47;2.87;;;1.70;99.90;;;;;;5032010;28;20109;-54
2023/11/26 03:52:46;;;;;;;8.57;3.30;;;1.70;99.90;;;;;;5033882;28;20383;-52
2023/11/26 03:55:12;;;;;;;5.10;2.70;;;1.70;99.90;;;;;;5033523;28;20040;-53
2023/11/26 03:57:37;;;;;;;9.10;2.90;;;1.70;99.90;;;;;;5031959;28;20048;-53
2023/11/26 04:00:08;;;;;;;9.60;2.70;;;1.80;99.90;;;;;;5033197;28;20121;-54
2023/11/26 04:02:39;;;;;;;8.60;2.57;;;1.80;99.90;;;;;;5033769;28;20064;-54
2023/11/26 04:05:05;;;;;;;7.73;2.70;;;1.90;99.90;;;;;;5033434;28;20053;-55
2023/11/26 04:07:31;;;;;;;8.70;2.80;;;1.90;99.90;;;;;;5033510;28;20616;-53
2023/11/26 04:09:57;;;;;;;7.87;2.70;;;2.00;99.90;;;;;;5033227;28;20143;-53
2023/11/26 04:12:23;;;;;;;5.03;2.30;;;2.00;99.90;;;;;;5032054;28;20044;-50
2023/11/26 04:15:07;;;;;;;10.27;2.97;;;2.10;99.90;;;;;;5033527;28;20037;-54
2023/11/26 04:17:34;;;;;;;7.67;2.57;;;2.10;99.90;;;;;;5031910;28;20029;-53
2023/11/26 04:20:00;;;;;;;5.93;2.97;;;2.10;99.90;;;;;;5032714;28;20137;-54
2023/11/26 04:22:27;;;;;;;6.37;2.70;;;2.10;99.90;;;;;;5033275;28;20108;-54
2023/11/26 04:24:53;;;;;;;6.00;2.53;;;2.10;99.90;;;;;;5033200;28;20048;-53
2023/11/26 04:27:21;;;;;;;5.57;2.17;;;2.10;99.90;;;;;;5033353;28;20097;-54
2023/11/26 04:29:47;;;;;;;9.53;2.87;;;2.20;99.90;;;;;;5032787;28;20033;-52
2023/11/26 04:32:13;;;;;;;11.33;3.33;;;2.30;99.90;;;;;;5032952;28;20033;-53
2023/11/26 04:34:39;;;;;;;10.93;3.30;;;2.30;99.90;;;;;;5032882;28;20036;-54
2023/11/26 04:37:17;;;;;;;10.13;3.37;;;2.30;99.90;;;;;;5033047;28;20033;-54
2023/11/26 04:39:44;;;;;;;8.77;2.87;;;2.40;99.90;;;;;;5032624;28;20443;-53
2023/11/26 04:42:09;;;;;;;6.37;2.90;;;2.30;99.90;;;;;;5032146;28;20042;-53
2023/11/26 04:44:35;;;;;;;8.97;3.07;;;2.40;99.90;;;;;;5032608;28;20029;-52
2023/11/26 04:47:01;;;;;;;7.47;2.70;;;2.40;99.90;;;;;;5033107;28;20029;-54
2023/11/26 04:49:27;;;;;;;9.80;2.80;;;2.40;99.90;;;;;;5032110;28;20148;-54
2023/11/26 04:51:52;;;;;;;8.00;3.03;;;2.30;99.90;;;;;;5031673;28;20142;-54
2023/11/26 04:54:21;;;;;;;7.70;2.50;;;2.30;99.90;;;;;;5032113;28;20382;-54
2023/11/26 04:56:46;;;;;;;11.70;3.83;;;2.30;99.90;;;;;;5032981;28;20037;-54
2023/11/26 04:59:12;;;;;;;8.53;2.80;;;2.30;99.90;;;;;;5032283;28;20078;-54
2023/11/26 05:01:43;;;;;;;8.17;2.67;;;2.30;99.90;;;;;;5032605;28;20112;-54
2023/11/26 05:04:13;;;;;;;15.67;2.93;;;2.30;99.90;;;;;;5032766;28;20036;-54
2023/11/26 05:06:39;;;;;;;6.93;2.70;;;2.30;99.90;;;;;;5032661;28;20036;-54
2023/11/26 05:09:11;;;;;;;8.20;3.03;;;2.30;99.90;;;;;;5032363;28;20030;-54
2023/11/26 05:11:37;;;;;;;9.43;3.03;;;2.40;99.90;;;;;;5032654;28;20520;-54
2023/11/26 05:14:03;;;;;;;7.50;3.03;;;2.50;99.90;;;;;;5032649;28;20041;-54
2023/11/26 05:16:28;;;;;;;9.03;3.07;;;2.50;99.90;;;;;;5032998;28;20029;-51
2023/11/26 05:18:54;;;;;;;8.33;2.93;;;2.50;99.90;;;;;;5031043;28;20505;-52
2023/11/26 05:21:19;;;;;;;9.03;2.80;;;2.50;99.90;;;;;;5032063;28;20044;-54
2023/11/26 05:23:45;;;;;;;12.83;3.37;;;2.50;99.90;;;;;;5032191;28;20021;-54
2023/11/26 05:26:14;;;;;;;12.87;3.40;;;2.50;99.90;;;;;;5031943;28;20029;-53
2023/11/26 05:28:40;;;;;;;;;;;2.60;99.90;;;;;;5031888;28;20029;-54
2023/11/26 05:31:06;;;;;;;8.20;2.73;;;2.60;99.90;;;;;;5031621;28;19934;-54
2023/11/26 05:33:32;;;;;;;11.23;3.00;;;2.60;99.90;;;;;;5031779;28;20029;-51
2023/11/26 05:35:57;;;;;;;17.70;3.20;;;2.60;99.90;;;;;;5031485;28;20072;-54
2023/11/26 05:38:23;;;;;;;8.87;3.10;;;2.60;99.90;;;;;;5031522;28;20030;-54
2023/11/26 05:40:48;;;;;;;13.60;3.17;;;2.60;99.90;;;;;;5031197;28;20155;-54
2023/11/26 05:43:14;;;;;;;8.80;3.30;;;2.60;99.90;;;;;;5031616;28;20482;-50
2023/11/26 05:45:40;;;;;;;9.53;3.23;;;2.60;99.90;;;;;;5031646;28;20084;-54
2023/11/26 05:48:08;;;;;;;7.00;2.70;;;2.60;99.90;;;;;;5031260;28;20038;-53
2023/11/26 05:50:34;;;;;;;8.60;3.73;;;2.60;99.90;;;;;;5030895;28;20037;-54
2023/11/26 05:53:00;;;;;;;8.77;3.50;;;2.60;99.90;;;;;;5031380;28;20040;-52
2023/11/26 05:55:25;;;;;;;9.90;3.50;;;2.70;99.90;;;;;;5031391;28;20106;-54
2023/11/26 05:57:51;;;;;;;5.97;3.10;;;2.70;99.90;;;;;;5031457;28;20521;-53
2023/11/26 06:00:18;;;;;;;11.27;3.60;;;2.70;99.90;;;;;;5030915;28;20034;-54
2023/11/26 06:02:44;;;;;;;8.80;3.30;;;2.70;99.90;;;;;;5029919;28;20037;-53
2023/11/26 06:05:09;;;;;;;14.70;4.10;;;2.60;99.90;;;;;;5031013;28;20026;-53
2023/11/26 06:07:35;;;;;;;15.87;3.50;;;2.70;99.90;;;;;;5031200;28;20108;-50
2023/11/26 06:10:00;;;;;;;8.73;3.83;;;2.80;99.90;;;;;;5030957;28;20694;-53
2023/11/26 06:12:26;;;;;;;10.83;3.53;;;2.70;99.90;;;;;;5031313;28;20117;-53
2023/11/26 06:14:52;;;;;;;12.70;3.67;;;2.70;99.90;;;;;;5031149;28;20030;-53
2023/11/26 06:17:17;;;;;;;8.17;3.30;;;2.70;99.90;;;;;;5031130;28;20052;-51
2023/11/26 06:19:43;;;;;;;10.90;3.27;;;2.70;99.90;;;;;;5030751;28;20155;-54
2023/11/26 06:22:09;;;;;;;9.33;3.90;;;2.70;99.90;;;;;;5029528;28;20034;-51
2023/11/26 06:24:34;;;;;;;12.73;3.70;;;2.70;99.90;;;;;;5031158;28;20025;-54
2023/11/26 06:27:00;;;;;;;8.97;3.33;;;2.70;99.90;;;;;;5031138;28;20049;-54
2023/11/26 06:29:26;;;;;;;11.47;3.77;;;2.70;99.90;;;;;;5030543;28;20033;-54
2023/11/26 06:31:52;;;;;;;8.00;3.63;;;2.70;99.90;;;;;;5030754;28;20033;-54
2023/11/26 06:34:25;;;;;;;7.23;3.97;;;2.70;99.90;;;;;;5030999;28;20029;-53
2023/11/26 06:36:50;;;;;;;12.27;3.77;;;2.80;99.90;;;;;;5030922;28;20037;-54
2023/11/26 06:39:16;;;;;;;15.57;4.17;;;2.80;99.90;;;;;;5030767;28;20371;-54
2023/11/26 06:41:42;;;;;;;5.97;3.43;;;2.70;99.90;;;;;;5030839;28;20040;-54
2023/11/26 06:44:09;;;;;;;8.47;4.10;;;2.70;99.90;;;;;;5030714;28;20033;-52
2023/11/26 06:46:35;;;;;;;16.63;4.77;;;2.70;99.90;;;;;;5030672;28;20069;-50
2023/11/26 06:49:01;;;;;;;9.13;4.17;;;2.70;99.90;;;;;;5030436;28;20108;-54
2023/11/26 06:51:27;;;;;;;10.00;4.07;;;2.60;99.90;;;;;;5030667;28;20459;-52
2023/11/26 06:53:52;;;;;;;11.00;4.60;;;2.70;99.90;;;;;;5030677;28;20506;-53
2023/11/26 06:56:18;;;;;;;11.20;5.13;;;2.70;99.90;;;;;;5030714;28;20026;-53
2023/11/26 06:58:45;;;;;;;13.97;4.67;;;2.70;99.90;;;;;;5030544;28;20033;-54
2023/11/26 07:01:11;;;;;;;10.67;4.23;;;2.80;99.90;;;;;;5030402;28;20129;-53
2023/11/26 07:03:38;;;;;;;13.40;5.10;;;2.80;99.90;;;;;;5030704;28;20402;-50
2023/11/26 07:06:09;;;;;;;13.80;4.27;;;2.70;99.90;;;;;;5030781;28;20029;-54
2023/11/26 07:08:38;;;;;;;10.23;4.40;;;2.70;99.90;;;;;;5030523;28;20421;-51
2023/11/26 07:11:17;;;;;;;12.20;5.03;;;2.80;99.90;;;;;;5030480;28;20045;-54
2023/11/26 07:13:43;;;;;;;14.15;4.85;;;2.80;99.90;;;;;;5030747;28;20052;-53
2023/11/26 07:16:09;;;;;;;9.90;4.50;;;2.80;99.90;;;;;;5031594;28;20041;-53
2023/11/26 07:18:35;;;;;;;13.30;4.77;;;2.90;99.90;;;;;;5034127;28;20039;-54
2023/11/26 07:21:00;;;;;;;13.60;5.27;;;2.80;99.90;;;;;;5034008;28;20056;-52
2023/11/26 07:23:26;;;;;;;12.70;5.27;;;2.80;99.90;;;;;;5034095;28;20417;-53
2023/11/26 07:25:52;;;;;;;13.67;5.10;;;2.80;99.90;;;;;;5034220;28;20514;-53
2023/11/26 07:28:18;;;;;;;11.63;5.57;;;2.80;99.90;;;;;;5034173;28;20030;-54
2023/11/26 07:30:44;;;;;;;10.67;4.70;;;2.80;99.90;;;;;;5033765;28;20078;-52
2023/11/26 07:33:10;;;;;;;13.77;5.63;;;2.70;99.90;;;;;;5034275;28;20486;-51
2023/11/26 07:35:37;;;;;;;8.20;4.13;;;2.80;99.90;;;;;;5033966;28;20386;-52
2023/11/26 07:38:04;;;;;;;13.50;5.60;;;2.70;99.90;;;;;;5031748;28;20036;-52
2023/11/26 07:40:33;;;;;;;21.73;8.13;;;2.80;99.90;;;;;;5024264;28;20044;-54
2023/11/26 07:43:04;;;;;;;18.40;6.88;;;2.90;99.90;;;;;;5023504;28;20022;-53
2023/11/26 07:45:31;;;;;;;15.23;5.10;;;2.90;99.90;;;;;;5022764;28;20112;-54
2023/11/26 07:47:56;;;;;;;13.17;5.90;;;2.90;99.90;;;;;;5024627;28;20026;-49
2023/11/26 07:50:22;;;;;;;12.13;6.00;;;2.90;99.90;;;;;;5026667;28;20026;-50
2023/11/26 07:52:48;;;;;;;13.50;5.97;;;3.00;99.90;;;;;;5023813;28;20033;-49
2023/11/26 07:55:14;;;;;;;17.10;5.50;;;3.00;99.90;;;;;;5022394;28;20034;-54
2023/11/26 07:57:41;;;;;;;13.57;5.90;;;3.00;99.90;;;;;;5024232;28;20056;-54
2023/11/26 08:00:10;;;;;;;17.93;5.93;;;3.10;99.90;;;;;;5023072;28;20415;-51
2023/11/26 08:02:40;;;;;;;13.30;5.97;;;3.10;99.90;;;;;;5023309;28;20091;-50
2023/11/26 08:05:08;;;;;;;17.67;6.73;;;3.20;99.90;;;;;;5023506;28;20021;-53
2023/11/26 08:07:36;;;;;;;13.47;6.30;;;3.20;99.90;;;;;;5016678;28;20022;-52
2023/11/26 08:10:09;;;;;;;15.13;6.40;;;3.20;99.90;;;;;;5013435;28;20034;-54
2023/11/26 08:12:38;;;;;;;16.60;6.20;;;3.30;99.90;;;;;;5013918;28;20034;-55
2023/11/26 08:15:13;;;;;;;16.87;6.50;;;3.30;99.90;;;;;;5013735;28;20116;-53
2023/11/26 08:17:39;;;;;;;15.47;5.90;;;3.30;99.90;;;;;;5018980;28;20029;-55
2023/11/26 08:20:09;;;;;;;16.23;7.17;;;3.40;99.90;;;;;;5026755;28;20033;-54
2023/11/26 08:22:40;;;;;;;18.90;6.70;;;3.40;99.90;;;;;;5024754;28;20088;-55
2023/11/26 08:25:12;;;;;;;14.70;6.53;;;3.50;99.90;;;;;;5022348;28;20171;-52
2023/11/26 08:27:44;;;;;;;17.93;7.00;;;3.50;99.90;;;;;;5028103;28;20048;-54
2023/11/26 08:30:30;;;;;;;19.77;7.30;;;3.50;99.90;;;;;;5033015;28;20397;-54
2023/11/26 08:33:00;;;;;;;20.03;7.67;;;3.60;99.90;;;;;;5033579;28;20037;-55
2023/11/26 08:35:29;;;;;;;25.93;8.27;;;3.60;99.90;;;;;;5033587;28;20025;-53
2023/11/26 08:37:56;;;;;;;17.70;7.80;;;3.70;99.90;;;;;;5033170;28;20033;-50
2023/11/26 08:40:25;;;;;;;26.50;9.13;;;3.70;99.90;;;;;;5032485;28;20044;-49
2023/11/26 08:42:54;;;;;;;21.70;8.93;;;3.80;99.90;;;;;;5032807;28;20075;-54
2023/11/26 08:45:21;;;;;;;17.17;7.57;;;3.90;99.90;;;;;;5032761;28;20041;-52
2023/11/26 08:47:47;;;;;;;16.57;7.57;;;3.90;99.90;;;;;;5031262;28;20044;-53
2023/11/26 08:50:13;;;;;;;20.87;9.03;;;4.00;99.90;;;;;;5032235;28;20465;-51
2023/11/26 08:52:39;;;;;;;20.20;8.83;;;4.10;99.90;;;;;;5032626;28;20033;-53
2023/11/26 08:55:05;;;;;;;19.87;8.03;;;4.20;99.90;;;;;;5031314;28;20068;-51
2023/11/26 08:57:32;;;;;;;22.87;8.77;;;4.20;99.90;;;;;;5032629;28;20087;-52
2023/11/26 08:59:57;;;;;;;22.10;8.90;;;4.20;99.90;;;;;;5030664;28;20473;-50
2023/11/26 09:02:26;;;;;;;17.50;7.43;;;4.20;99.90;;;;;;5032098;28;20029;-52
2023/11/26 09:04:51;;;;;;;20.97;8.27;;;4.30;99.90;;;;;;5032567;28;20405;-50
2023/11/26 09:07:18;;;;;;;19.67;8.63;;;4.30;99.90;;;;;;5032291;28;20041;-52
2023/11/26 09:09:44;;;;;;;22.77;10.03;;;4.40;99.90;;;;;;5031901;28;20037;-53
2023/11/26 09:12:09;;;;;;;21.40;7.53;;;4.40;99.90;;;;;;5032292;28;20413;-52
2023/11/26 09:14:35;;;;;;;21.63;7.87;;;4.60;99.90;;;;;;5032325;28;20087;-53
2023/11/26 09:17:01;;;;;;;21.30;8.30;;;4.60;99.90;;;;;;5030713;28;20446;-54
2023/11/26 09:19:27;;;;;;;18.73;7.97;;;4.70;99.90;;;;;;5030529;28;20045;-52
2023/11/26 09:21:53;;;;;;;21.33;7.87;;;4.70;99.90;;;;;;5032250;28;20035;-53
2023/11/26 09:24:19;;;;;;;18.63;7.37;;;4.90;99.90;;;;;;5032166;28;20416;-52
2023/11/26 09:26:45;;;;;;;18.00;7.40;;;5.10;99.90;;;;;;5031960;28;20088;-54
2023/11/26 09:29:12;;;;;;;15.33;7.47;;;5.20;99.90;;;;;;5031072;28;20041;-54
2023/11/26 09:31:41;;;;;;;19.23;6.67;;;5.20;99.90;;;;;;5029914;28;20033;-55
2023/11/26 09:34:07;;;;;;;19.60;6.40;;;5.30;99.90;;;;;;5031256;28;20029;-52
2023/11/26 09:36:33;;;;;;;17.47;6.67;;;5.30;99.90;;;;;;5031428;28;20398;-49
2023/11/26 09:38:59;;;;;;;15.57;6.83;;;5.40;99.90;;;;;;5030305;28;20071;-53
2023/11/26 09:41:25;;;;;;;14.10;5.70;;;5.50;99.90;;;;;;5031947;28;20029;-54
2023/11/26 09:43:51;;;;;;;17.80;6.43;;;5.50;99.90;;;;;;5031262;28;20032;-54
2023/11/26 09:46:20;;;;;;;16.97;6.50;;;5.50;99.90;;;;;;5031357;28;20022;-54
2023/11/26 09:48:46;;;;;;;12.80;5.90;;;5.70;99.90;;;;;;5031017;28;20112;-53
2023/11/26 09:51:13;;;;;;;14.00;6.07;;;5.70;99.90;;;;;;5031049;28;20163;-53
2023/11/26 09:53:40;;;;;;;16.50;5.77;;;5.80;99.90;;;;;;5031075;28;20057;-54
2023/11/26 09:56:10;;;;;;;16.33;5.87;;;5.90;99.90;;;;;;5029534;28;20064;-54
2023/11/26 09:58:39;;;;;;;15.93;5.90;;;6.00;99.90;;;;;;5030527;28;20048;-55
2023/11/26 10:01:11;;;;;;;13.15;5.05;;;6.00;99.90;;;;;;5030581;28;20075;-53
2023/11/26 10:04:00;;;;;;;14.97;6.13;;;6.20;99.90;;;;;;5030629;28;20390;-53
2023/11/26 10:06:27;;;;;;;13.97;5.77;;;6.40;99.90;;;;;;5030684;28;20116;-53
2023/11/26 10:08:53;;;;;;;13.10;5.80;;;6.60;99.90;;;;;;5030349;28;20029;-53
2023/11/26 10:11:24;;;;;;;8.90;4.57;;;6.80;99.90;;;;;;5030113;28;20041;-54
2023/11/26 10:13:53;;;;;;;12.07;5.00;;;7.00;99.90;;;;;;5030303;28;20025;-54
2023/11/26 10:16:34;;;;;;;13.15;4.88;;;7.20;99.90;;;;;;5030361;28;20095;-53
2023/11/26 10:19:00;;;;;;;10.80;4.70;;;7.50;99.90;;;;;;5029919;28;20438;-52
2023/11/26 10:21:26;;;;;;;13.30;4.70;;;7.90;99.90;;;;;;5029981;28;20375;-54
2023/11/26 10:23:52;;;;;;;7.70;4.33;;;8.10;99.90;;;;;;5030332;28;20076;-52
2023/11/26 10:26:20;;;;;;;8.53;3.83;;;8.20;99.90;;;;;;5030320;28;20033;-53
2023/11/26 10:29:08;;;;;;;10.93;4.60;;;8.50;99.90;;;;;;5030355;28;20030;-51
2023/11/26 10:32:00;;;;;;;9.77;4.13;;;8.90;99.90;;;;;;5028921;28;20336;-54
2023/11/26 10:34:26;;;;;;;9.43;4.10;;;9.10;99.90;;;;;;5030396;28;20032;-54
2023/11/26 10:36:52;;;;;;;8.40;3.77;;;9.20;99.90;;;;;;5030374;28;20573;-54
2023/11/26 10:39:17;;;;;;;10.00;4.27;;;9.00;99.90;;;;;;5028409;28;20482;-53
2023/11/26 10:41:46;;;;;;;15.10;5.20;;;8.70;99.90;;;;;;5028688;28;20030;-52
2023/11/26 10:44:13;;;;;;;12.55;4.13;;;8.60;99.90;;;;;;5030109;28;20037;-53
2023/11/26 10:46:43;;;;;;;7.63;4.23;;;8.40;99.90;;;;;;5030020;28;20030;-51
2023/11/26 10:49:37;;;;;;;11.60;4.70;;;8.30;99.90;;;;;;5029766;28;20033;-53
2023/11/26 10:52:14;;;;;;;8.40;3.90;;;8.00;99.90;;;;;;5034616;28;20037;-54
2023/11/26 10:55:04;;;;;;;8.77;4.47;;;7.80;99.90;;;;;;5034916;28;20501;-54
2023/11/26 10:57:37;;;;;;;;;;;7.60;99.90;;;;;;5035537;28;20029;-50
2023/11/26 11:00:06;;;;;;;10.63;4.83;;;7.50;99.90;;;;;;5026055;28;19916;-54
2023/11/26 11:02:32;;;;;;;10.50;4.50;;;7.30;99.90;;;;;;5018785;28;20045;-54
2023/11/26 11:04:59;;;;;;;8.57;4.47;;;7.20;99.90;;;;;;5015127;28;20479;-53
2023/11/26 11:07:25;;;;;;;11.47;4.63;;;7.10;99.90;;;;;;5015200;28;20120;-53
2023/11/26 11:10:15;;;;;;;10.30;4.90;;;7.10;99.90;;;;;;5014726;28;20036;-55
2023/11/26 11:12:55;;;;;;;9.50;4.87;;;7.00;99.90;;;;;;5014796;28;20115;-53
2023/11/26 11:15:23;;;;;;;11.07;5.03;;;6.90;99.90;;;;;;5014672;28;20034;-53
2023/11/26 11:17:48;;;;;;;12.80;4.93;;;6.90;99.90;;;;;;5014653;28;20116;-53
2023/11/26 11:20:14;;;;;;;11.20;5.33;;;6.90;99.90;;;;;;5013568;28;20125;-54
2023/11/26 11:22:45;;;;;;;15.67;5.07;;;6.90;99.90;;;;;;5014128;28;20044;-54
2023/11/26 11:25:16;;;;;;;10.17;5.30;;;6.90;99.90;;;;;;5013105;28;20034;-53
2023/11/26 11:27:59;;;;;;;15.07;6.07;;;6.90;99.90;;;;;;5014281;28;20062;-55
2023/11/26 11:30:40;;;;;;;11.33;4.97;;;6.90;99.90;;;;;;5013942;28;20036;-53
2023/11/26 11:33:10;;;;;;;11.90;5.83;;;6.90;99.90;;;;;;5014403;28;20489;-53
2023/11/26 11:35:40;;;;;;;14.47;6.03;;;7.00;99.90;;;;;;5013928;28;20034;-53
2023/11/26 11:38:09;;;;;;;12.70;5.10;;;7.00;99.90;;;;;;5014372;28;20025;-52
2023/11/26 11:40:57;;;;;;;15.77;6.13;;;7.00;99.90;;;;;;5013929;28;20581;-52
2023/11/26 11:43:23;;;;;;;16.70;5.57;;;7.10;99.90;;;;;;5014287;28;20367;-53
2023/11/26 11:45:48;;;;;;;15.13;6.17;;;7.20;99.90;;;;;;5014159;28;20029;-52
2023/11/26 11:48:42;;;;;;;11.27;5.33;;;7.30;99.90;;;;;;5013938;28;20503;-53
2023/11/26 11:51:29;;;;;;;12.17;5.97;;;7.40;99.90;;;;;;5013427;28;20414;-53
2023/11/26 11:54:10;;;;;;;13.80;6.93;;;7.50;99.90;;;;;;5013674;28;20061;-51
2023/11/26 11:56:37;;;;;;;12.07;6.07;;;7.50;99.90;;;;;;5013986;28;20037;-52
2023/11/26 11:59:04;;;;;;;12.03;6.17;;;7.50;99.90;;;;;;5013397;28;20053;-52
2023/11/26 12:01:30;;;;;;;17.60;6.37;;;7.60;99.90;;;;;;5012895;28;20044;-53
2023/11/26 12:04:00;;;;;;;15.50;6.20;;;7.70;99.90;;;;;;5013314;28;20033;-53
2023/11/26 12:06:26;;;;;;;;;;;7.70;99.90;;;;;;5012730;28;20034;-53
2023/11/26 12:09:10;;;;;;;12.00;5.47;;;7.80;99.90;;;;;;5012146;28;19910;-53
2023/11/26 12:11:49;;;;;;;14.27;6.83;;;7.80;99.90;;;;;;5013296;28;20804;-50
2023/11/26 12:14:25;;;;;;;14.27;5.67;;;7.90;99.90;;;;;;5013175;28;20439;-53
2023/11/26 12:16:51;;;;;;;16.90;6.60;;;8.00;99.90;;;;;;5013390;28;20062;-52
2023/11/26 12:19:17;;;;;;;16.00;6.27;;;8.00;99.90;;;;;;5012611;28;20065;-51
2023/11/26 12:21:43;;;;;;;16.20;5.67;;;8.00;99.90;;;;;;5013385;28;20038;-53
2023/11/26 12:24:22;;;;;;;13.30;6.13;;;8.10;99.90;;;;;;5012754;28;20052;-53
2023/11/26 12:26:49;;;;;;;12.50;6.43;;;8.00;99.90;;;;;;5013066;28;20056;-53
2023/11/26 12:29:27;;;;;;;15.73;5.77;;;8.00;99.90;;;;;;5012532;28;20037;-54
2023/11/26 12:31:57;;;;;;;17.40;5.60;;;8.10;99.90;;;;;;5012869;28;20126;-54
2023/11/26 12:34:23;;;;;;;11.17;4.97;;;8.10;99.90;;;;;;5012847;28;20119;-53
2023/11/26 12:36:50;;;;;;;12.93;5.93;;;8.10;99.90;;;;;;5012897;28;20406;-52
2023/11/26 12:39:21;;;;;;;11.63;5.27;;;8.00;99.90;;;;;;5012114;28;20046;-54
2023/11/26 12:41:47;;;;;;;12.80;5.20;;;8.00;99.90;;;;;;5012497;28;20121;-55
2023/11/26 12:44:14;;;;;;;14.13;5.43;;;8.10;99.90;;;;;;5029544;28;20104;-55
2023/11/26 12:46:40;;;;;;;10.17;4.97;;;8.10;99.90;;;;;;5031678;28;20025;-54
2023/11/26 12:49:21;;;;;;;11.87;5.07;;;8.10;99.90;;;;;;5031829;28;20034;-53
2023/11/26 12:51:47;;;;;;;16.17;5.83;;;8.00;99.90;;;;;;5032008;28;20029;-54
2023/11/26 12:54:12;;;;;;;13.40;4.57;;;7.90;99.90;;;;;;5031122;28;20049;-54
2023/11/26 12:56:40;;;;;;;11.47;5.03;;;7.90;99.90;;;;;;5032040;28;20060;-53
2023/11/26 12:59:07;;;;;;;12.17;5.47;;;7.90;99.90;;;;;;5032036;28;20029;-54